Time;durP1;ratioP1;P1;durP2;ratioP2;P2;SDS_P1;SDS_P2;PMS_P1;PMS_P2;Temp;Humidity;BMP_temperature;BMP_pressure;BME280_temperature;BME280_humidity;BME280_pressure;Samples;Min_cycle;Max_cycle;Signal;HPM_P1;HPM_P2
2020/12/26 00:02:12;;;;;;;11.57;7.47;;;6.80;74.50;;;;;;4987420;28;20035;-73
2020/12/26 00:04:37;;;;;;;14.00;7.30;;;6.90;74.50;;;;;;4970033;28;20026;-72
2020/12/26 00:07:04;;;;;;;14.90;8.63;;;6.90;74.30;;;;;;4977006;28;20059;-72
2020/12/26 00:09:30;;;;;;;14.83;7.50;;;6.90;74.20;;;;;;4993248;28;20038;-72
2020/12/26 00:11:56;;;;;;;13.53;7.60;;;7.00;74.30;;;;;;4983577;28;20473;-73
2020/12/26 00:14:27;;;;;;;14.50;7.20;;;7.00;74.20;;;;;;4986709;28;20108;-73
2020/12/26 00:16:57;;;;;;;16.07;7.87;;;7.10;74.00;;;;;;4990472;28;20061;-72
2020/12/26 00:19:25;;;;;;;11.50;6.90;;;7.20;73.80;;;;;;4995106;28;20039;-73
2020/12/26 00:21:52;;;;;;;13.50;7.60;;;7.20;73.60;;;;;;4988500;28;20037;-72
2020/12/26 00:24:18;;;;;;;17.43;7.33;;;7.10;73.60;;;;;;4988486;28;20168;-73
2020/12/26 00:26:43;;;;;;;15.23;7.78;;;7.10;73.80;;;;;;5002360;28;20728;-72
2020/12/26 00:29:09;;;;;;;13.27;6.83;;;7.10;74.00;;;;;;4989762;28;20038;-73
2020/12/26 00:31:35;;;;;;;12.60;7.60;;;7.10;74.00;;;;;;4977531;28;20129;-72
2020/12/26 00:34:01;;;;;;;15.67;8.47;;;7.10;74.00;;;;;;5003427;28;20143;-72
2020/12/26 00:36:27;;;;;;;11.87;7.53;;;7.20;73.90;;;;;;4978673;28;20040;-72
2020/12/26 00:38:52;;;;;;;12.23;6.73;;;7.30;73.80;;;;;;4991537;28;20029;-72
2020/12/26 00:41:18;;;;;;;13.00;6.70;;;7.30;73.50;;;;;;5002747;28;20042;-72
2020/12/26 00:43:44;;;;;;;14.30;7.00;;;7.40;73.40;;;;;;5002376;28;20043;-73
2020/12/26 00:46:10;;;;;;;17.20;7.67;;;7.40;73.40;;;;;;4975103;28;20057;-73
2020/12/26 00:48:36;;;;;;;14.75;7.07;;;7.40;73.30;;;;;;4974135;28;20066;-73
2020/12/26 00:51:02;;;;;;;14.37;7.57;;;7.40;73.20;;;;;;5001425;28;20070;-73
2020/12/26 00:53:29;;;;;;;11.53;7.30;;;7.40;73.30;;;;;;4998193;28;20026;-72
2020/12/26 00:55:55;;;;;;;14.05;7.65;;;7.40;73.40;;;;;;4990766;28;20344;-72
2020/12/26 00:58:20;;;;;;;14.23;8.93;;;7.30;73.50;;;;;;5006396;28;20037;-72
2020/12/26 01:00:46;;;;;;;14.65;7.28;;;7.20;73.60;;;;;;5005953;28;20037;-72
2020/12/26 01:03:12;;;;;;;16.63;9.10;;;7.20;73.70;;;;;;5008932;28;20506;-72
2020/12/26 01:05:37;;;;;;;11.20;6.80;;;7.30;73.80;;;;;;4989650;28;20042;-72
2020/12/26 01:08:03;;;;;;;10.67;6.23;;;7.30;73.70;;;;;;4986602;28;20041;-72
2020/12/26 01:10:29;;;;;;;14.43;8.93;;;7.40;73.60;;;;;;4988932;28;20038;-71
2020/12/26 01:12:54;;;;;;;13.90;7.20;;;7.40;73.40;;;;;;5006367;28;20526;-72
2020/12/26 01:15:20;;;;;;;13.13;8.23;;;7.40;73.40;;;;;;5005043;28;20034;-73
2020/12/26 01:17:46;;;;;;;11.97;7.07;;;7.40;73.40;;;;;;4989072;28;20513;-76
2020/12/26 01:20:12;;;;;;;17.80;9.60;;;7.50;73.30;;;;;;5003749;28;20041;-73
2020/12/26 01:22:39;;;;;;;15.70;8.13;;;7.50;73.30;;;;;;5004460;28;20034;-74
2020/12/26 01:25:06;;;;;;;16.33;7.87;;;7.50;73.20;;;;;;5005129;28;20183;-74
2020/12/26 01:27:33;;;;;;;15.23;8.93;;;7.50;73.20;;;;;;4988172;28;20099;-74
2020/12/26 01:30:00;;;;;;;13.87;8.23;;;7.50;73.30;;;;;;4986339;28;20033;-76
2020/12/26 01:32:27;;;;;;;12.45;8.45;;;7.40;73.30;;;;;;5003030;28;20060;-72
2020/12/26 01:35:00;;;;;;;16.03;8.27;;;7.50;73.40;;;;;;5005906;28;20391;-73
2020/12/26 01:37:28;;;;;;;13.43;8.32;;;7.60;73.20;;;;;;5004442;28;20025;-72
2020/12/26 01:39:55;;;;;;;12.88;8.07;;;7.60;73.00;;;;;;4987731;28;20049;-74
2020/12/26 01:42:21;;;;;;;12.65;8.05;;;7.60;73.00;;;;;;4973426;28;20411;-73
2020/12/26 01:44:47;;;;;;;13.10;7.37;;;7.70;72.90;;;;;;4983981;28;20112;-72
2020/12/26 01:47:14;;;;;;;13.90;8.37;;;7.70;72.90;;;;;;4988959;28;20092;-73
2020/12/26 01:49:41;;;;;;;14.87;8.23;;;7.60;72.90;;;;;;4986726;28;20034;-73
2020/12/26 01:52:09;;;;;;;17.73;7.97;;;7.60;72.90;;;;;;5005056;28;20176;-73
2020/12/26 01:54:35;;;;;;;15.20;8.87;;;7.60;73.00;;;;;;5006790;28;20120;-73
2020/12/26 01:57:02;;;;;;;13.67;8.00;;;7.60;73.10;;;;;;5008918;28;20108;-73
2020/12/26 01:59:28;;;;;;;15.60;8.13;;;7.60;73.10;;;;;;5007374;28;20396;-73
2020/12/26 02:01:59;;;;;;;14.60;8.63;;;7.60;73.10;;;;;;5009337;28;20050;-73
2020/12/26 02:04:25;;;;;;;14.07;8.10;;;7.50;73.20;;;;;;5009966;28;20030;-73
2020/12/26 02:06:59;;;;;;;14.77;9.00;;;7.50;73.40;;;;;;4988221;28;20108;-73
2020/12/26 02:09:26;;;;;;;14.70;8.27;;;7.40;73.60;;;;;;4991576;28;20030;-73
2020/12/26 02:11:51;;;;;;;11.90;8.10;;;7.40;73.80;;;;;;5005544;28;20114;-72
2020/12/26 02:14:17;;;;;;;14.77;8.33;;;7.40;74.10;;;;;;5008105;28;20131;-73
2020/12/26 02:16:50;;;;;;;12.43;7.97;;;7.40;74.10;;;;;;5022827;28;20029;-74
2020/12/26 02:19:19;;;;;;;14.93;8.63;;;7.40;74.10;;;;;;5012974;28;20501;-73
2020/12/26 02:21:46;;;;;;;14.80;8.70;;;7.40;74.30;;;;;;5001469;28;20065;-73
2020/12/26 02:24:12;;;;;;;13.10;8.40;;;7.50;74.30;;;;;;5012455;28;20053;-73
2020/12/26 02:26:38;;;;;;;14.82;8.38;;;7.50;74.30;;;;;;5011833;28;20479;-73
2020/12/26 02:29:05;;;;;;;11.25;7.68;;;7.60;74.40;;;;;;4995017;28;20037;-73
2020/12/26 02:31:31;;;;;;;12.40;8.05;;;7.60;74.30;;;;;;5010638;28;20054;-73
2020/12/26 02:33:57;;;;;;;11.60;7.37;;;7.70;74.10;;;;;;4998932;28;20112;-73
2020/12/26 02:36:23;;;;;;;12.68;7.68;;;7.80;74.10;;;;;;4985422;28;20130;-73
2020/12/26 02:38:49;;;;;;;12.07;8.20;;;7.80;74.20;;;;;;5005081;28;20036;-73
2020/12/26 02:41:14;;;;;;;12.73;7.47;;;7.80;74.50;;;;;;5012711;28;20114;-73
2020/12/26 02:43:40;;;;;;;13.37;7.97;;;7.70;74.70;;;;;;5011719;28;20065;-73
2020/12/26 02:46:06;;;;;;;16.25;7.97;;;7.70;74.90;;;;;;4975647;28;20062;-73
2020/12/26 02:48:31;;;;;;;14.57;9.07;;;7.70;74.90;;;;;;4993486;28;20037;-73
2020/12/26 02:50:57;;;;;;;12.07;8.32;;;7.80;74.80;;;;;;5010792;28;20034;-73
2020/12/26 02:53:24;;;;;;;15.00;8.52;;;7.80;74.60;;;;;;4994965;28;20392;-73
2020/12/26 02:55:50;;;;;;;15.97;9.40;;;7.80;74.50;;;;;;5011650;28;20511;-73
2020/12/26 02:58:16;;;;;;;19.77;8.37;;;7.90;74.40;;;;;;5011848;28;20032;-73
2020/12/26 03:00:42;;;;;;;12.65;9.35;;;8.00;74.40;;;;;;5011426;28;20034;-72
2020/12/26 03:03:07;;;;;;;10.70;8.00;;;8.00;74.30;;;;;;5011571;28;20037;-73
2020/12/26 03:05:33;;;;;;;37.85;10.85;;;8.00;74.20;;;;;;5000432;28;20034;-73
2020/12/26 03:07:59;;;;;;;11.27;8.05;;;8.00;74.10;;;;;;5012202;28;20091;-72
2020/12/26 03:10:24;;;;;;;13.70;9.32;;;8.10;74.10;;;;;;5011067;28;20041;-73
2020/12/26 03:12:50;;;;;;;14.73;8.77;;;8.10;74.00;;;;;;5011310;28;20033;-73
2020/12/26 03:15:16;;;;;;;16.90;9.98;;;8.10;74.00;;;;;;5011516;28;20524;-73
2020/12/26 03:17:41;;;;;;;13.57;9.52;;;8.10;73.90;;;;;;4997808;28;20132;-72
2020/12/26 03:20:07;;;;;;;13.10;9.10;;;8.10;73.90;;;;;;5008434;28;20032;-73
2020/12/26 03:22:33;;;;;;;12.23;8.25;;;8.10;73.80;;;;;;5011618;28;20037;-72
2020/12/26 03:24:59;;;;;;;13.80;9.60;;;8.10;73.80;;;;;;5011133;28;20136;-73
2020/12/26 03:27:25;;;;;;;16.13;9.30;;;8.10;73.80;;;;;;5011737;28;20172;-73
2020/12/26 03:29:52;;;;;;;14.38;8.80;;;8.10;73.90;;;;;;5011265;28;20748;-72
2020/12/26 03:32:19;;;;;;;15.38;9.45;;;8.10;73.90;;;;;;5007406;28;20046;-73
2020/12/26 03:34:44;;;;;;;13.43;9.80;;;8.10;73.80;;;;;;5010205;28;20506;-72
2020/12/26 03:37:10;;;;;;;15.50;9.45;;;8.00;73.80;;;;;;5011027;28;20030;-73
2020/12/26 03:39:36;;;;;;;11.63;8.85;;;8.00;73.80;;;;;;4996837;28;20541;-72
2020/12/26 03:42:10;;;;;;;15.20;9.17;;;8.00;73.90;;;;;;4977004;28;20045;-73
2020/12/26 03:44:36;;;;;;;12.50;9.57;;;8.00;73.80;;;;;;5011323;28;20526;-75
2020/12/26 03:47:06;;;;;;;21.48;9.30;;;7.90;73.80;;;;;;5011132;28;20030;-73
2020/12/26 03:49:32;;;;;;;13.07;8.82;;;7.90;73.80;;;;;;5010792;28;20205;-73
2020/12/26 03:51:58;;;;;;;14.90;8.45;;;7.90;74.00;;;;;;5006224;28;20056;-73
2020/12/26 03:54:24;;;;;;;15.40;9.60;;;7.80;73.90;;;;;;5000212;28;20045;-72
2020/12/26 03:56:49;;;;;;;12.18;8.02;;;7.80;74.00;;;;;;5000911;28;20390;-72
2020/12/26 03:59:15;;;;;;;12.57;7.72;;;7.80;74.10;;;;;;5008274;28;20042;-73
2020/12/26 04:01:41;;;;;;;12.82;7.70;;;7.70;74.40;;;;;;4990469;28;20050;-73
2020/12/26 04:04:07;;;;;;;11.73;7.57;;;7.70;74.60;;;;;;4995101;28;20038;-74
2020/12/26 04:06:33;;;;;;;13.10;7.77;;;7.60;74.80;;;;;;4990788;28;20107;-72
2020/12/26 04:08:59;;;;;;;9.67;7.20;;;7.60;75.00;;;;;;5007055;28;20539;-72
2020/12/26 04:11:25;;;;;;;9.47;6.33;;;7.50;75.20;;;;;;4991655;28;20040;-73
2020/12/26 04:13:51;;;;;;;11.13;7.47;;;7.60;75.20;;;;;;5007230;28;20054;-73
2020/12/26 04:16:17;;;;;;;12.83;7.00;;;7.60;75.00;;;;;;4992567;28;20037;-73
2020/12/26 04:18:43;;;;;;;11.70;7.33;;;7.60;75.00;;;;;;5007995;28;20042;-73
2020/12/26 04:21:09;;;;;;;14.87;7.60;;;7.60;74.90;;;;;;5007317;28;20034;-73
2020/12/26 04:23:35;;;;;;;12.00;7.03;;;7.60;74.90;;;;;;5008356;28;20037;-73
2020/12/26 04:26:01;;;;;;;13.90;7.63;;;7.60;75.00;;;;;;5008865;28;20472;-73
2020/12/26 04:28:27;;;;;;;10.07;6.07;;;7.60;75.10;;;;;;5009190;28;20030;-74
2020/12/26 04:30:53;;;;;;;12.87;6.53;;;7.50;75.20;;;;;;5010559;28;20105;-73
2020/12/26 04:33:19;;;;;;;12.53;7.13;;;7.50;75.30;;;;;;5010346;28;20034;-73
2020/12/26 04:35:45;;;;;;;11.33;6.93;;;7.50;75.40;;;;;;4995229;28;20041;-73
2020/12/26 04:38:11;;;;;;;9.27;5.83;;;7.50;75.30;;;;;;4993217;28;20030;-73
2020/12/26 04:40:37;;;;;;;10.23;6.93;;;7.50;75.30;;;;;;5009102;28;20109;-73
2020/12/26 04:43:04;;;;;;;9.27;6.07;;;7.50;75.20;;;;;;5010016;28;20118;-73
2020/12/26 04:45:30;;;;;;;11.73;6.70;;;7.50;75.20;;;;;;5010002;28;20053;-73
2020/12/26 04:48:07;;;;;;;13.23;6.20;;;7.50;75.20;;;;;;5010211;28;20036;-73
2020/12/26 04:50:34;;;;;;;21.80;6.80;;;7.50;75.30;;;;;;5009409;28;20045;-73
2020/12/26 04:53:02;;;;;;;11.20;5.93;;;7.50;75.30;;;;;;4992334;28;20152;-73
2020/12/26 04:55:33;;;;;;;10.00;5.80;;;7.40;75.20;;;;;;4994101;28;20396;-72
2020/12/26 04:58:09;;;;;;;9.10;5.53;;;7.40;75.20;;;;;;5010090;28;20129;-73
2020/12/26 05:00:36;;;;;;;9.57;5.40;;;8.00;75.50;;;;;;5008295;28;20033;-73
2020/12/26 05:03:10;;;;;;;10.53;6.27;;;7.50;75.20;;;;;;5007900;28;20044;-73
2020/12/26 05:05:40;;;;;;;12.00;5.50;;;7.50;75.20;;;;;;5009225;28;20034;-72
2020/12/26 05:08:08;;;;;;;11.20;5.83;;;7.40;75.20;;;;;;5010573;28;20532;-73
2020/12/26 05:10:35;;;;;;;13.87;6.43;;;7.40;75.20;;;;;;4992645;28;20464;-73
2020/12/26 05:13:02;;;;;;;10.73;5.73;;;7.40;75.20;;;;;;5010026;28;20100;-73
2020/12/26 05:15:27;;;;;;;10.47;5.93;;;7.40;75.20;;;;;;4995829;28;20026;-73
2020/12/26 05:17:53;;;;;;;8.87;5.43;;;7.40;75.20;;;;;;5009715;28;20034;-74
2020/12/26 05:20:26;;;;;;;10.10;5.50;;;7.40;75.20;;;;;;5008216;28;20030;-73
2020/12/26 05:23:12;;;;;;;9.60;5.50;;;7.30;75.20;;;;;;4992688;28;20549;-72
2020/12/26 05:25:43;;;;;;;10.40;5.30;;;7.30;75.30;;;;;;4991230;28;20550;-73
2020/12/26 05:28:15;;;;;;;10.90;4.83;;;7.20;75.40;;;;;;5009853;28;20125;-73
2020/12/26 05:30:46;;;;;;;11.30;4.93;;;7.20;75.70;;;;;;4998527;28;20030;-73
2020/12/26 05:33:14;;;;;;;10.67;5.40;;;7.10;76.00;;;;;;5011955;28;20380;-73
2020/12/26 05:35:44;;;;;;;9.53;5.47;;;7.10;76.00;;;;;;5010987;28;20062;-73
2020/12/26 05:38:14;;;;;;;8.70;5.07;;;7.20;76.10;;;;;;5014520;28;20026;-73
2020/12/26 05:40:56;;;;;;;9.37;5.33;;;7.20;75.90;;;;;;5013935;28;20492;-73
2020/12/26 05:43:30;;;;;;;8.30;5.07;;;7.20;75.70;;;;;;5013135;28;20124;-73
2020/12/26 05:45:56;;;;;;;9.70;5.65;;;7.30;75.70;;;;;;5012980;28;20156;-73
2020/12/26 05:48:24;;;;;;;11.97;6.47;;;7.20;75.60;;;;;;5013789;28;20049;-73
2020/12/26 05:50:56;;;;;;;8.10;4.80;;;7.20;75.70;;;;;;5009420;28;20041;-73
2020/12/26 05:53:25;;;;;;;9.60;5.40;;;7.20;75.70;;;;;;5002690;28;20022;-73
2020/12/26 05:55:51;;;;;;;7.30;4.27;;;7.20;75.70;;;;;;5011763;28;20041;-73
2020/12/26 05:58:23;;;;;;;10.73;5.43;;;7.30;75.70;;;;;;4996117;28;20175;-73
2020/12/26 06:00:50;;;;;;;8.87;5.20;;;7.30;75.70;;;;;;4983567;28;20030;-73
2020/12/26 06:03:22;;;;;;;11.40;5.77;;;7.30;75.60;;;;;;5013436;28;20041;-74
2020/12/26 06:05:49;;;;;;;8.73;4.87;;;7.40;75.60;;;;;;5011449;28;20049;-72
2020/12/26 06:08:16;;;;;;;10.50;5.47;;;7.40;75.50;;;;;;4995871;28;20113;-73
2020/12/26 06:10:51;;;;;;;8.67;4.87;;;7.40;75.60;;;;;;5013162;28;20519;-73
2020/12/26 06:13:18;;;;;;;11.27;6.10;;;7.40;75.60;;;;;;4995577;28;20022;-73
2020/12/26 06:16:03;;;;;;;9.67;5.17;;;7.40;75.60;;;;;;5011426;28;20030;-72
2020/12/26 06:18:31;;;;;;;10.97;5.67;;;7.50;75.40;;;;;;5013310;28;20026;-73
2020/12/26 06:20:57;;;;;;;10.60;5.70;;;7.50;75.40;;;;;;5007572;28;20091;-73
2020/12/26 06:23:24;;;;;;;12.90;7.20;;;7.50;75.30;;;;;;5012134;28;20029;-73
2020/12/26 06:25:52;;;;;;;10.40;6.17;;;7.50;75.20;;;;;;5012199;28;20042;-73
2020/12/26 06:28:26;;;;;;;9.63;5.90;;;7.50;75.10;;;;;;5012963;28;20087;-73
2020/12/26 06:30:54;;;;;;;12.93;6.73;;;7.50;75.10;;;;;;5011758;28;20801;-73
2020/12/26 06:33:23;;;;;;;11.03;6.77;;;7.50;75.00;;;;;;5006350;28;20026;-73
2020/12/26 06:35:50;;;;;;;12.07;7.20;;;7.50;75.00;;;;;;5011395;28;20033;-73
2020/12/26 06:38:23;;;;;;;10.77;6.67;;;7.50;74.90;;;;;;5012837;28;20091;-73
2020/12/26 06:40:50;;;;;;;;;;;7.50;75.50;;;;;;5012057;28;20026;-73
2020/12/26 06:43:47;;;;;;;13.07;7.93;;;7.50;74.80;;;;;;5013016;28;20099;-73
2020/12/26 06:46:13;;;;;;;13.57;6.93;;;7.50;75.00;;;;;;4991989;28;20062;-72
2020/12/26 06:48:39;;;;;;;10.00;7.03;;;7.50;75.10;;;;;;4985439;28;20577;-73
2020/12/26 06:51:28;;;;;;;11.30;7.23;;;7.50;75.10;;;;;;5011425;28;20495;-73
2020/12/26 06:54:14;;;;;;;11.27;7.43;;;7.60;75.10;;;;;;4993667;28;20053;-73
2020/12/26 06:56:40;;;;;;;12.17;7.90;;;7.50;75.10;;;;;;5003170;28;20081;-73
2020/12/26 06:59:07;;;;;;;13.90;8.77;;;7.50;75.10;;;;;;5011023;28;20054;-73
2020/12/26 07:01:34;;;;;;;11.43;7.83;;;7.40;75.20;;;;;;5011150;28;20100;-73
2020/12/26 07:04:15;;;;;;;15.53;9.77;;;7.50;75.40;;;;;;5011373;28;20026;-73
2020/12/26 07:06:43;;;;;;;11.23;7.53;;;7.50;75.30;;;;;;4990123;28;20033;-73
2020/12/26 07:09:10;;;;;;;14.43;9.53;;;7.60;75.20;;;;;;5012141;28;20033;-73
2020/12/26 07:11:52;;;;;;;12.47;9.37;;;7.60;75.00;;;;;;5011147;28;20211;-74
2020/12/26 07:14:30;;;;;;;15.03;9.23;;;7.60;75.00;;;;;;5010983;28;20028;-73
2020/12/26 07:16:57;;;;;;;15.10;10.30;;;7.60;74.90;;;;;;5008048;28;20112;-73
2020/12/26 07:19:23;;;;;;;14.50;9.70;;;7.70;74.80;;;;;;5002384;28;20123;-73
2020/12/26 07:21:53;;;;;;;15.03;10.63;;;7.70;74.60;;;;;;5010460;28;20468;-73
2020/12/26 07:24:23;;;;;;;15.10;10.48;;;7.70;74.40;;;;;;4991340;28;20042;-73
2020/12/26 07:26:49;;;;;;;18.07;10.97;;;7.70;74.50;;;;;;5009764;28;20396;-72
2020/12/26 07:29:27;;;;;;;13.23;10.33;;;7.70;74.30;;;;;;5004315;28;20089;-73
2020/12/26 07:31:54;;;;;;;16.35;11.32;;;7.70;74.30;;;;;;5006885;28;20049;-73
2020/12/26 07:34:38;;;;;;;17.20;10.70;;;7.60;74.50;;;;;;5005988;28;20101;-73
2020/12/26 07:37:05;;;;;;;16.23;10.67;;;7.60;74.60;;;;;;4989807;28;20128;-73
2020/12/26 07:39:30;;;;;;;16.67;10.37;;;7.60;74.50;;;;;;4991929;28;20164;-73
2020/12/26 07:41:56;;;;;;;14.53;10.17;;;7.60;74.50;;;;;;5007168;28;20172;-73
2020/12/26 07:44:29;;;;;;;14.67;10.73;;;7.70;74.50;;;;;;4991774;28;20038;-72
2020/12/26 07:46:55;;;;;;;18.40;11.60;;;7.70;74.40;;;;;;5008674;28;20062;-74
2020/12/26 07:49:22;;;;;;;17.27;11.43;;;7.70;74.30;;;;;;4990069;28;20026;-73
2020/12/26 07:52:05;;;;;;;15.90;10.80;;;7.70;74.20;;;;;;4991849;28;20058;-73
2020/12/26 07:54:30;;;;;;;21.33;11.75;;;7.70;74.20;;;;;;5016600;28;20037;-73
2020/12/26 07:56:56;;;;;;;20.97;14.30;;;7.70;74.10;;;;;;5010331;28;20498;-73
2020/12/26 07:59:25;;;;;;;19.45;12.95;;;7.70;74.10;;;;;;5011360;28;20091;-73
2020/12/26 08:01:53;;;;;;;27.27;12.70;;;7.80;74.00;;;;;;5009896;28;20501;-73
2020/12/26 08:04:19;;;;;;;18.03;12.13;;;7.70;74.10;;;;;;5010221;28;20049;-73
2020/12/26 08:06:47;;;;;;;14.43;11.03;;;7.60;74.00;;;;;;4997756;28;20030;-73
2020/12/26 08:09:13;;;;;;;15.80;10.90;;;7.60;74.30;;;;;;5010745;28;20069;-73
2020/12/26 08:11:40;;;;;;;15.80;10.17;;;7.60;74.30;;;;;;5010932;28;20022;-73
2020/12/26 08:14:05;;;;;;;13.57;10.00;;;7.50;74.50;;;;;;4989590;28;20124;-74
2020/12/26 08:16:32;;;;;;;13.25;9.45;;;7.60;74.60;;;;;;5008217;28;20479;-74
2020/12/26 08:19:00;;;;;;;16.30;10.60;;;7.60;74.50;;;;;;5007573;28;20030;-74
2020/12/26 08:21:26;;;;;;;14.82;9.50;;;7.70;74.30;;;;;;5006568;28;20045;-74
2020/12/26 08:23:59;;;;;;;17.17;11.23;;;7.80;74.10;;;;;;5001436;28;20484;-74
2020/12/26 08:26:27;;;;;;;15.75;10.43;;;7.70;74.00;;;;;;5005997;28;20056;-74
2020/12/26 08:28:57;;;;;;;16.10;8.88;;;7.70;74.00;;;;;;5007493;28;20109;-73
2020/12/26 08:31:23;;;;;;;13.87;8.53;;;7.70;74.10;;;;;;5005941;28;20419;-74
2020/12/26 08:34:08;;;;;;;12.77;8.45;;;7.70;74.20;;;;;;4988225;28;20037;-74
2020/12/26 08:36:47;;;;;;;14.00;9.52;;;7.80;74.20;;;;;;5007412;28;20104;-74
2020/12/26 08:39:18;;;;;;;16.83;8.30;;;7.80;74.00;;;;;;4990364;28;20049;-73
2020/12/26 08:41:46;;;;;;;14.07;8.63;;;7.80;73.90;;;;;;5006443;28;20034;-74
2020/12/26 08:44:13;;;;;;;14.48;8.38;;;7.80;73.90;;;;;;5009465;28;20150;-75
2020/12/26 08:46:47;;;;;;;12.95;7.90;;;7.70;73.90;;;;;;5009098;28;20369;-74
2020/12/26 08:49:13;;;;;;;;;;;7.70;74.60;;;;;;5008569;28;20539;-75
2020/12/26 08:51:43;;;;;;;14.82;7.90;;;7.90;73.40;;;;;;4989682;28;20382;-75
2020/12/26 08:54:22;;;;;;;14.53;7.63;;;7.90;73.50;;;;;;5005622;28;20030;-75
2020/12/26 08:56:49;;;;;;;12.52;7.50;;;7.90;73.40;;;;;;5006318;28;20022;-75
2020/12/26 08:59:27;;;;;;;11.23;7.13;;;7.90;73.40;;;;;;5007330;28;20030;-73
2020/12/26 09:01:56;;;;;;;10.40;7.03;;;7.90;73.70;;;;;;5005172;28;20064;-73
2020/12/26 09:04:22;;;;;;;13.67;7.63;;;7.90;73.30;;;;;;5012234;28;20034;-72
2020/12/26 09:06:48;;;;;;;14.52;7.57;;;7.90;73.40;;;;;;5010367;28;20026;-74
2020/12/26 09:09:18;;;;;;;11.30;7.47;;;7.90;73.10;;;;;;4995248;28;20088;-74
2020/12/26 09:11:58;;;;;;;12.48;7.18;;;7.90;73.10;;;;;;5013915;28;20026;-74
2020/12/26 09:14:24;;;;;;;11.60;6.95;;;7.90;73.10;;;;;;5014870;28;20033;-74
2020/12/26 09:17:00;;;;;;;10.38;6.65;;;7.80;73.20;;;;;;4997456;28;20104;-74
2020/12/26 09:19:27;;;;;;;12.32;6.68;;;7.80;73.40;;;;;;5012658;28;20033;-73
2020/12/26 09:22:06;;;;;;;12.75;7.20;;;7.80;73.30;;;;;;4982864;28;20408;-74
2020/12/26 09:24:32;;;;;;;11.25;7.00;;;7.90;73.30;;;;;;5007463;28;20364;-73
2020/12/26 09:26:58;;;;;;;12.48;7.15;;;8.00;73.00;;;;;;4992409;28;20416;-72
2020/12/26 09:29:24;;;;;;;16.30;7.05;;;8.20;72.80;;;;;;5011378;28;20084;-73
2020/12/26 09:31:51;;;;;;;10.60;6.35;;;8.50;72.20;;;;;;5013945;28;20042;-72
2020/12/26 09:34:25;;;;;;;12.38;7.25;;;8.50;71.30;;;;;;5014704;28;20849;-75
2020/12/26 09:37:10;;;;;;;10.30;6.25;;;8.60;71.40;;;;;;5003873;28;20036;-73
2020/12/26 09:39:37;;;;;;;10.52;5.72;;;8.70;70.70;;;;;;5013501;28;20407;-76
2020/12/26 09:42:03;;;;;;;13.30;6.28;;;8.90;70.40;;;;;;5009125;28;20034;-73
2020/12/26 09:44:29;;;;;;;9.27;5.70;;;8.90;70.40;;;;;;5009721;28;20069;-75
2020/12/26 09:47:03;;;;;;;10.80;5.65;;;9.00;70.20;;;;;;5005445;28;20061;-74
2020/12/26 09:49:29;;;;;;;13.07;6.00;;;9.00;69.60;;;;;;4992547;28;20018;-74
2020/12/26 09:51:54;;;;;;;10.60;5.32;;;9.00;69.80;;;;;;5006703;28;20042;-73
2020/12/26 09:54:20;;;;;;;11.23;6.13;;;8.90;69.70;;;;;;5009992;28;20128;-74
2020/12/26 09:56:46;;;;;;;12.45;7.38;;;9.00;69.70;;;;;;5013249;28;20030;-74
2020/12/26 09:59:11;;;;;;;12.05;5.80;;;8.90;69.50;;;;;;5002073;28;20057;-73
2020/12/26 10:01:39;;;;;;;11.48;6.22;;;8.90;69.80;;;;;;5005129;28;20356;-74
2020/12/26 10:04:05;;;;;;;13.50;6.90;;;8.90;69.80;;;;;;5008101;28;20492;-74
2020/12/26 10:06:30;;;;;;;12.60;6.95;;;9.10;69.40;;;;;;5001757;28;20082;-74
2020/12/26 10:08:56;;;;;;;11.80;5.25;;;9.10;69.30;;;;;;5013401;28;20045;-73
2020/12/26 10:11:21;;;;;;;15.55;5.82;;;9.20;69.40;;;;;;5006060;28;20041;-73
2020/12/26 10:13:48;;;;;;;8.55;4.88;;;9.50;68.70;;;;;;4999399;28;20046;-73
2020/12/26 10:16:17;;;;;;;11.10;4.97;;;9.50;68.10;;;;;;5002947;28;20484;-72
2020/12/26 10:18:46;;;;;;;20.27;5.75;;;9.60;67.80;;;;;;4989713;28;20065;-72
2020/12/26 10:21:18;;;;;;;13.40;5.75;;;10.20;68.00;;;;;;5001866;28;20126;-76
2020/12/26 10:23:44;;;;;;;9.88;5.30;;;9.70;66.70;;;;;;4991697;28;20037;-80
2020/12/26 10:26:10;;;;;;;10.98;4.78;;;9.70;66.90;;;;;;4991063;28;20038;-78
2020/12/26 10:28:36;;;;;;;11.73;5.20;;;9.50;66.90;;;;;;4978657;28;20448;-78
2020/12/26 10:31:02;;;;;;;9.25;4.38;;;9.50;67.30;;;;;;5011470;28;20054;-76
2020/12/26 10:33:28;;;;;;;7.78;4.68;;;9.30;66.90;;;;;;4997777;28;20018;-79
2020/12/26 10:35:54;;;;;;;8.07;3.83;;;9.10;67.30;;;;;;5003667;28;20064;-78
2020/12/26 10:38:20;;;;;;;6.75;3.80;;;9.00;67.70;;;;;;4999895;28;20061;-77
2020/12/26 10:40:45;;;;;;;11.65;4.30;;;9.00;67.80;;;;;;5011666;28;20100;-78
2020/12/26 10:43:11;;;;;;;8.52;4.32;;;8.80;68.10;;;;;;4990073;28;20110;-75
2020/12/26 10:45:37;;;;;;;7.28;4.07;;;8.80;68.30;;;;;;5012615;28;20104;-75
2020/12/26 10:48:02;;;;;;;9.02;4.22;;;8.70;68.50;;;;;;4995691;28;20042;-78
2020/12/26 10:50:28;;;;;;;11.07;4.43;;;8.80;68.70;;;;;;5011832;28;20538;-75
2020/12/26 10:52:53;;;;;;;10.73;4.07;;;8.80;68.40;;;;;;5012524;28;20042;-74
2020/12/26 10:55:19;;;;;;;8.60;4.10;;;8.90;68.70;;;;;;5012171;28;20041;-75
2020/12/26 10:57:45;;;;;;;7.30;3.75;;;8.90;68.50;;;;;;5012913;28;20092;-76
2020/12/26 11:00:12;;;;;;;10.05;4.55;;;9.00;68.60;;;;;;5008071;28;20026;-78
2020/12/26 11:02:37;;;;;;;10.50;4.40;;;9.00;68.10;;;;;;4991549;28;20495;-78
2020/12/26 11:05:05;;;;;;;6.78;3.65;;;9.10;68.10;;;;;;5006110;28;20061;-78
2020/12/26 11:07:31;;;;;;;9.18;3.83;;;9.10;67.80;;;;;;5005163;28;20028;-78
2020/12/26 11:09:57;;;;;;;8.48;3.88;;;9.20;67.90;;;;;;5005636;28;20027;-78
2020/12/26 11:12:22;;;;;;;12.20;4.85;;;9.20;67.90;;;;;;5004906;28;20440;-75
2020/12/26 11:14:48;;;;;;;9.45;3.83;;;9.20;67.80;;;;;;4987214;28;20073;-78
2020/12/26 11:17:13;;;;;;;8.40;4.13;;;9.20;67.30;;;;;;5004653;28;20385;-73
2020/12/26 11:19:40;;;;;;;8.32;3.63;;;9.10;67.20;;;;;;5006060;28;20150;-74
2020/12/26 11:22:06;;;;;;;8.20;3.78;;;9.00;67.70;;;;;;5001258;28;20034;-73
2020/12/26 11:24:31;;;;;;;10.00;3.70;;;8.90;67.80;;;;;;5014366;28;20100;-74
2020/12/26 11:26:57;;;;;;;7.55;3.63;;;9.00;68.00;;;;;;5006346;28;20064;-74
2020/12/26 11:29:23;;;;;;;9.13;3.38;;;9.00;67.90;;;;;;5008473;28;20103;-73
2020/12/26 11:31:49;;;;;;;6.45;4.00;;;9.00;67.80;;;;;;4991025;28;20050;-73
2020/12/26 11:34:15;;;;;;;7.72;3.63;;;9.10;67.80;;;;;;5016865;28;20543;-73
2020/12/26 11:36:41;;;;;;;9.27;3.78;;;9.10;67.80;;;;;;5005029;28;20121;-72
2020/12/26 11:39:08;;;;;;;9.63;4.93;;;9.10;67.80;;;;;;5000958;28;20032;-73
2020/12/26 11:41:34;;;;;;;8.77;3.90;;;9.10;67.80;;;;;;5003911;28;20027;-74
2020/12/26 11:44:00;;;;;;;8.88;4.15;;;9.20;67.60;;;;;;5000637;28;20049;-74
2020/12/26 11:46:26;;;;;;;9.07;4.03;;;9.20;67.20;;;;;;5008704;28;20041;-74
2020/12/26 11:48:52;;;;;;;8.02;3.65;;;9.20;67.40;;;;;;5008053;28;20116;-73
2020/12/26 11:51:18;;;;;;;7.45;3.50;;;9.20;67.40;;;;;;5005341;28;20402;-73
2020/12/26 11:53:43;;;;;;;8.48;3.00;;;9.20;67.30;;;;;;5002188;28;20058;-73
2020/12/26 11:56:15;;;;;;;6.00;3.20;;;9.20;67.30;;;;;;5009262;28;20041;-72
2020/12/26 11:58:41;;;;;;;10.10;3.53;;;9.20;67.40;;;;;;5010027;28;20044;-73
2020/12/26 12:01:07;;;;;;;9.02;4.05;;;9.10;67.40;;;;;;5010347;28;20048;-73
2020/12/26 12:03:34;;;;;;;8.93;4.05;;;9.10;67.60;;;;;;4992915;28;20460;-73
2020/12/26 12:06:00;;;;;;;9.20;4.00;;;9.20;67.70;;;;;;4991852;28;20026;-73
2020/12/26 12:08:26;;;;;;;6.47;3.38;;;9.20;67.80;;;;;;5008655;28;20045;-73
2020/12/26 12:10:52;;;;;;;8.35;3.25;;;9.30;67.60;;;;;;5009730;28;20037;-74
2020/12/26 12:13:18;;;;;;;9.77;4.25;;;10.00;67.60;;;;;;5006159;28;20034;-72
2020/12/26 12:15:44;;;;;;;8.85;3.75;;;9.20;67.30;;;;;;5008599;28;20107;-72
2020/12/26 12:18:10;;;;;;;9.35;3.38;;;9.20;67.40;;;;;;5002654;28;20429;-72
2020/12/26 12:20:37;;;;;;;8.32;3.72;;;9.20;67.50;;;;;;5011067;28;20057;-71
2020/12/26 12:23:03;;;;;;;10.60;3.03;;;9.20;67.70;;;;;;4987351;28;20042;-72
2020/12/26 12:25:29;;;;;;;7.78;3.50;;;9.20;67.70;;;;;;5008388;28;20054;-73
2020/12/26 12:27:56;;;;;;;7.15;3.03;;;9.20;67.60;;;;;;4974201;28;20364;-73
2020/12/26 12:30:26;;;;;;;8.35;3.05;;;9.20;67.60;;;;;;5008153;28;20080;-74
2020/12/26 12:32:52;;;;;;;7.85;3.13;;;9.20;67.40;;;;;;5014849;28;20152;-74
2020/12/26 12:35:18;;;;;;;6.75;3.15;;;9.20;67.40;;;;;;5022956;28;20033;-75
2020/12/26 12:37:48;;;;;;;8.40;3.03;;;9.20;67.30;;;;;;5007860;28;20034;-73
2020/12/26 12:40:14;;;;;;;8.68;3.28;;;9.20;67.20;;;;;;5011294;28;20045;-74
2020/12/26 12:42:39;;;;;;;9.30;3.85;;;9.20;67.00;;;;;;5008534;28;20399;-74
2020/12/26 12:45:05;;;;;;;8.00;3.25;;;9.20;66.90;;;;;;4974675;28;20037;-74
2020/12/26 12:47:31;;;;;;;7.82;3.75;;;9.20;66.70;;;;;;5006515;28;20117;-73
2020/12/26 12:49:56;;;;;;;9.57;3.65;;;9.20;66.50;;;;;;5002703;28;20198;-81
2020/12/26 12:52:22;;;;;;;9.15;3.65;;;9.20;67.00;;;;;;4977660;28;20045;-72